sensor_id;sensor_type;location;lat;lon;timestamp;P1;P2;P0
45871;PMS5003;32333;55.844;-3.210;2024-02-28T00:01:53;0;0;
45871;PMS5003;32333;55.844;-3.210;2024-02-28T00:04:43;0;0;
45871;PMS5003;32333;55.844;-3.210;2024-02-28T00:07:11;0;0;
45871;PMS5003;32333;55.844;-3.210;2024-02-28T00:09:39;0;0;
45871;PMS5003;32333;55.844;-3.210;2024-02-28T00:14:35;0;0;
45871;PMS5003;32333;55.844;-3.210;2024-02-28T00:17:02;0;0;
45871;PMS5003;32333;55.844;-3.210;2024-02-28T00:19:30;0;0;
45871;PMS5003;32333;55.844;-3.210;2024-02-28T00:21:57;0;0;
45871;PMS5003;32333;55.844;-3.210;2024-02-28T00:24:25;0;0;
45871;PMS5003;32333;55.844;-3.210;2024-02-28T00:26:53;0;0;
45871;PMS5003;32333;55.844;-3.210;2024-02-28T00:29:21;4;4;
45871;PMS5003;32333;55.844;-3.210;2024-02-28T00:31:48;6;4;
45871;PMS5003;32333;55.844;-3.210;2024-02-28T00:34:16;2;2;
45871;PMS5003;32333;55.844;-3.210;2024-02-28T00:36:43;5;4;
45871;PMS5003;32333;55.844;-3.210;2024-02-28T00:39:11;4;4;
45871;PMS5003;32333;55.844;-3.210;2024-02-28T00:41:39;8;5;
45871;PMS5003;32333;55.844;-3.210;2024-02-28T00:44:33;8;6;
45871;PMS5003;32333;55.844;-3.210;2024-02-28T00:47:02;5;4;
45871;PMS5003;32333;55.844;-3.210;2024-02-28T00:49:29;2;1;
45871;PMS5003;32333;55.844;-3.210;2024-02-28T00:51:57;8;5;
45871;PMS5003;32333;55.844;-3.210;2024-02-28T00:54:24;5;4;
45871;PMS5003;32333;55.844;-3.210;2024-02-28T00:56:53;8;4;
45871;PMS5003;32333;55.844;-3.210;2024-02-28T00:59:21;6;4;
45871;PMS5003;32333;55.844;-3.210;2024-02-28T01:01:50;7;5;
45871;PMS5003;32333;55.844;-3.210;2024-02-28T01:04:18;8;4;
45871;PMS5003;32333;55.844;-3.210;2024-02-28T01:06:45;12;5;
45871;PMS5003;32333;55.844;-3.210;2024-02-28T01:09:14;4;4;
45871;PMS5003;32333;55.844;-3.210;2024-02-28T01:11:42;8;5;
45871;PMS5003;32333;55.844;-3.210;2024-02-28T01:14:34;8;6;
45871;PMS5003;32333;55.844;-3.210;2024-02-28T01:17:03;7;5;
45871;PMS5003;32333;55.844;-3.210;2024-02-28T01:19:30;8;4;
45871;PMS5003;32333;55.844;-3.210;2024-02-28T01:21:59;5;4;
45871;PMS5003;32333;55.844;-3.210;2024-02-28T01:24:27;11;5;
45871;PMS5003;32333;55.844;-3.210;2024-02-28T01:26:55;11;7;
45871;PMS5003;32333;55.844;-3.210;2024-02-28T01:29:23;5;4;
45871;PMS5003;32333;55.844;-3.210;2024-02-28T01:31:52;13;10;
45871;PMS5003;32333;55.844;-3.210;2024-02-28T01:34:20;11;7;
45871;PMS5003;32333;55.844;-3.210;2024-02-28T01:36:48;7;4;
45871;PMS5003;32333;55.844;-3.210;2024-02-28T01:39:16;5;2;
45871;PMS5003;32333;55.844;-3.210;2024-02-28T01:41:50;4;4;
45871;PMS5003;32333;55.844;-3.210;2024-02-28T01:44:34;8;4;
45871;PMS5003;32333;55.844;-3.210;2024-02-28T01:47:10;8;5;
45871;PMS5003;32333;55.844;-3.210;2024-02-28T01:49:56;9;5;
45871;PMS5003;32333;55.844;-3.210;2024-02-28T01:52:24;7;5;
45871;PMS5003;32333;55.844;-3.210;2024-02-28T01:54:52;8;7;
45871;PMS5003;32333;55.844;-3.210;2024-02-28T01:57:20;8;5;
45871;PMS5003;32333;55.844;-3.210;2024-02-28T01:59:49;11;8;
45871;PMS5003;32333;55.844;-3.210;2024-02-28T02:02:17;5;4;
45871;PMS5003;32333;55.844;-3.210;2024-02-28T02:04:45;7;5;
45871;PMS5003;32333;55.844;-3.210;2024-02-28T02:07:13;10;5;
45871;PMS5003;32333;55.844;-3.210;2024-02-28T02:09:41;11;7;
45871;PMS5003;32333;55.844;-3.210;2024-02-28T02:14:35;0;0;
45871;PMS5003;32333;55.844;-3.210;2024-02-28T02:17:04;0;0;
45871;PMS5003;32333;55.844;-3.210;2024-02-28T02:19:32;0;0;
45871;PMS5003;32333;55.844;-3.210;2024-02-28T02:22:00;0;0;
45871;PMS5003;32333;55.844;-3.210;2024-02-28T02:24:32;1;1;
45871;PMS5003;32333;55.844;-3.210;2024-02-28T02:26:59;0;0;
45871;PMS5003;32333;55.844;-3.210;2024-02-28T02:29:27;0;0;
45871;PMS5003;32333;55.844;-3.210;2024-02-28T02:31:55;6;1;
45871;PMS5003;32333;55.844;-3.210;2024-02-28T02:34:24;0;0;
45871;PMS5003;32333;55.844;-3.210;2024-02-28T02:36:52;1;1;
45871;PMS5003;32333;55.844;-3.210;2024-02-28T02:39:20;0;0;
45871;PMS5003;32333;55.844;-3.210;2024-02-28T02:41:48;0;0;
45871;PMS5003;32333;55.844;-3.210;2024-02-28T02:44:35;1;1;
45871;PMS5003;32333;55.844;-3.210;2024-02-28T02:47:02;0;0;
45871;PMS5003;32333;55.844;-3.210;2024-02-28T02:49:30;0;0;
45871;PMS5003;32333;55.844;-3.210;2024-02-28T02:51:58;0;0;
45871;PMS5003;32333;55.844;-3.210;2024-02-28T02:54:26;0;0;
45871;PMS5003;32333;55.844;-3.210;2024-02-28T02:56:53;1;1;
45871;PMS5003;32333;55.844;-3.210;2024-02-28T02:59:21;1;1;
45871;PMS5003;32333;55.844;-3.210;2024-02-28T03:01:49;0;0;
45871;PMS5003;32333;55.844;-3.210;2024-02-28T03:04:17;4;3;
45871;PMS5003;32333;55.844;-3.210;2024-02-28T03:06:44;0;0;
45871;PMS5003;32333;55.844;-3.210;2024-02-28T03:09:12;1;0;
45871;PMS5003;32333;55.844;-3.210;2024-02-28T03:11:40;0;0;
45871;PMS5003;32333;55.844;-3.210;2024-02-28T03:14:35;0;0;
45871;PMS5003;32333;55.844;-3.210;2024-02-28T03:17:03;0;0;
45871;PMS5003;32333;55.844;-3.210;2024-02-28T03:19:30;0;0;
45871;PMS5003;32333;55.844;-3.210;2024-02-28T03:21:59;1;1;
45871;PMS5003;32333;55.844;-3.210;2024-02-28T03:24:28;0;0;
45871;PMS5003;32333;55.844;-3.210;2024-02-28T03:26:56;1;1;
45871;PMS5003;32333;55.844;-3.210;2024-02-28T03:29:25;0;0;
45871;PMS5003;32333;55.844;-3.210;2024-02-28T03:31:55;0;0;
45871;PMS5003;32333;55.844;-3.210;2024-02-28T03:36:02;0;0;
45871;PMS5003;32333;55.844;-3.210;2024-02-28T03:40:55;0;0;
45871;PMS5003;32333;55.844;-3.210;2024-02-28T03:45:06;0;0;
45871;PMS5003;32333;55.844;-3.210;2024-02-28T03:47:34;0;0;
45871;PMS5003;32333;55.844;-3.210;2024-02-28T03:50:01;0;0;
45871;PMS5003;32333;55.844;-3.210;2024-02-28T03:52:29;0;0;
45871;PMS5003;32333;55.844;-3.210;2024-02-28T03:54:57;0;0;
45871;PMS5003;32333;55.844;-3.210;2024-02-28T03:57:24;3;1;
45871;PMS5003;32333;55.844;-3.210;2024-02-28T03:59:53;0;0;
45871;PMS5003;32333;55.844;-3.210;2024-02-28T04:02:20;0;0;
45871;PMS5003;32333;55.844;-3.210;2024-02-28T04:04:48;0;0;
45871;PMS5003;32333;55.844;-3.210;2024-02-28T04:07:16;1;1;
45871;PMS5003;32333;55.844;-3.210;2024-02-28T04:09:49;0;0;
45871;PMS5003;32333;55.844;-3.210;2024-02-28T04:14:37;1;0;
45871;PMS5003;32333;55.844;-3.210;2024-02-28T04:17:05;1;0;
45871;PMS5003;32333;55.844;-3.210;2024-02-28T04:19:33;0;0;
45871;PMS5003;32333;55.844;-3.210;2024-02-28T04:22:02;0;0;
45871;PMS5003;32333;55.844;-3.210;2024-02-28T04:24:30;0;0;
45871;PMS5003;32333;55.844;-3.210;2024-02-28T04:26:58;0;0;
45871;PMS5003;32333;55.844;-3.210;2024-02-28T04:29:26;0;0;
45871;PMS5003;32333;55.844;-3.210;2024-02-28T04:31:53;0;0;
45871;PMS5003;32333;55.844;-3.210;2024-02-28T04:34:22;0;0;
45871;PMS5003;32333;55.844;-3.210;2024-02-28T04:36:49;0;0;
45871;PMS5003;32333;55.844;-3.210;2024-02-28T04:39:17;1;1;
45871;PMS5003;32333;55.844;-3.210;2024-02-28T04:41:44;0;0;
45871;PMS5003;32333;55.844;-3.210;2024-02-28T04:44:35;0;0;
45871;PMS5003;32333;55.844;-3.210;2024-02-28T04:47:02;0;0;
45871;PMS5003;32333;55.844;-3.210;2024-02-28T04:49:30;0;0;
45871;PMS5003;32333;55.844;-3.210;2024-02-28T04:51:57;0;0;
45871;PMS5003;32333;55.844;-3.210;2024-02-28T04:54:26;0;0;
45871;PMS5003;32333;55.844;-3.210;2024-02-28T04:56:53;0;0;
45871;PMS5003;32333;55.844;-3.210;2024-02-28T04:59:21;0;0;
45871;PMS5003;32333;55.844;-3.210;2024-02-28T05:01:49;1;1;
45871;PMS5003;32333;55.844;-3.210;2024-02-28T05:04:17;0;0;
45871;PMS5003;32333;55.844;-3.210;2024-02-28T05:06:44;0;0;
45871;PMS5003;32333;55.844;-3.210;2024-02-28T05:09:12;0;0;
45871;PMS5003;32333;55.844;-3.210;2024-02-28T05:11:41;0;0;
45871;PMS5003;32333;55.844;-3.210;2024-02-28T05:14:35;0;0;
45871;PMS5003;32333;55.844;-3.210;2024-02-28T05:17:04;0;0;
45871;PMS5003;32333;55.844;-3.210;2024-02-28T05:19:33;0;0;
45871;PMS5003;32333;55.844;-3.210;2024-02-28T05:22:03;0;0;
45871;PMS5003;32333;55.844;-3.210;2024-02-28T05:24:40;0;0;
45871;PMS5003;32333;55.844;-3.210;2024-02-28T05:27:09;0;0;
45871;PMS5003;32333;55.844;-3.210;2024-02-28T05:29:36;1;1;
45871;PMS5003;32333;55.844;-3.210;2024-02-28T05:32:04;0;0;
45871;PMS5003;32333;55.844;-3.210;2024-02-28T05:34:33;0;0;
45871;PMS5003;32333;55.844;-3.210;2024-02-28T05:37:01;0;0;
45871;PMS5003;32333;55.844;-3.210;2024-02-28T05:39:28;0;0;
45871;PMS5003;32333;55.844;-3.210;2024-02-28T05:41:57;0;0;
45871;PMS5003;32333;55.844;-3.210;2024-02-28T05:44:37;0;0;
45871;PMS5003;32333;55.844;-3.210;2024-02-28T05:47:06;3;3;
45871;PMS5003;32333;55.844;-3.210;2024-02-28T05:49:36;0;0;
45871;PMS5003;32333;55.844;-3.210;2024-02-28T05:52:05;1;1;
45871;PMS5003;32333;55.844;-3.210;2024-02-28T05:54:34;1;0;
45871;PMS5003;32333;55.844;-3.210;2024-02-28T05:57:02;0;0;
45871;PMS5003;32333;55.844;-3.210;2024-02-28T05:59:30;0;0;
45871;PMS5003;32333;55.844;-3.210;2024-02-28T06:01:58;0;0;
45871;PMS5003;32333;55.844;-3.210;2024-02-28T06:04:25;0;0;
45871;PMS5003;32333;55.844;-3.210;2024-02-28T06:06:53;0;0;
45871;PMS5003;32333;55.844;-3.210;2024-02-28T06:09:20;1;1;
45871;PMS5003;32333;55.844;-3.210;2024-02-28T06:11:48;0;0;
45871;PMS5003;32333;55.844;-3.210;2024-02-28T06:14:35;0;0;
45871;PMS5003;32333;55.844;-3.210;2024-02-28T06:17:02;1;1;
45871;PMS5003;32333;55.844;-3.210;2024-02-28T06:19:31;0;0;
45871;PMS5003;32333;55.844;-3.210;2024-02-28T06:21:59;0;0;
45871;PMS5003;32333;55.844;-3.210;2024-02-28T06:24:26;0;0;
45871;PMS5003;32333;55.844;-3.210;2024-02-28T06:26:54;1;1;
45871;PMS5003;32333;55.844;-3.210;2024-02-28T06:29:22;1;1;
45871;PMS5003;32333;55.844;-3.210;2024-02-28T06:31:50;0;0;
45871;PMS5003;32333;55.844;-3.210;2024-02-28T06:34:18;0;0;
45871;PMS5003;32333;55.844;-3.210;2024-02-28T06:36:48;0;0;
45871;PMS5003;32333;55.844;-3.210;2024-02-28T06:39:16;0;0;
45871;PMS5003;32333;55.844;-3.210;2024-02-28T06:41:43;0;0;
45871;PMS5003;32333;55.844;-3.210;2024-02-28T06:44:35;0;0;
45871;PMS5003;32333;55.844;-3.210;2024-02-28T06:47:03;3;1;
45871;PMS5003;32333;55.844;-3.210;2024-02-28T06:49:30;0;0;
45871;PMS5003;32333;55.844;-3.210;2024-02-28T06:51:58;0;0;
45871;PMS5003;32333;55.844;-3.210;2024-02-28T06:54:26;0;0;
45871;PMS5003;32333;55.844;-3.210;2024-02-28T06:56:54;1;1;
45871;PMS5003;32333;55.844;-3.210;2024-02-28T06:59:22;1;0;
45871;PMS5003;32333;55.844;-3.210;2024-02-28T07:01:50;1;1;
45871;PMS5003;32333;55.844;-3.210;2024-02-28T07:04:18;0;0;
45871;PMS5003;32333;55.844;-3.210;2024-02-28T07:06:45;1;1;
45871;PMS5003;32333;55.844;-3.210;2024-02-28T07:10:08;0;0;
45871;PMS5003;32333;55.844;-3.210;2024-02-28T07:14:34;3;3;
45871;PMS5003;32333;55.844;-3.210;2024-02-28T07:17:10;3;3;
45871;PMS5003;32333;55.844;-3.210;2024-02-28T07:19:40;1;1;
45871;PMS5003;32333;55.844;-3.210;2024-02-28T07:22:07;1;1;
45871;PMS5003;32333;55.844;-3.210;2024-02-28T07:24:35;3;3;
45871;PMS5003;32333;55.844;-3.210;2024-02-28T07:27:02;3;3;
45871;PMS5003;32333;55.844;-3.210;2024-02-28T07:29:30;1;1;
45871;PMS5003;32333;55.844;-3.210;2024-02-28T07:31:58;3;3;
45871;PMS5003;32333;55.844;-3.210;2024-02-28T07:34:26;1;1;
45871;PMS5003;32333;55.844;-3.210;2024-02-28T07:36:54;3;3;
45871;PMS5003;32333;55.844;-3.210;2024-02-28T07:39:24;1;1;
45871;PMS5003;32333;55.844;-3.210;2024-02-28T07:41:51;3;3;
45871;PMS5003;32333;55.844;-3.210;2024-02-28T07:44:35;0;0;
45871;PMS5003;32333;55.844;-3.210;2024-02-28T07:47:02;0;0;
45871;PMS5003;32333;55.844;-3.210;2024-02-28T07:49:32;0;0;
45871;PMS5003;32333;55.844;-3.210;2024-02-28T07:52:00;0;0;
45871;PMS5003;32333;55.844;-3.210;2024-02-28T07:54:27;0;0;
45871;PMS5003;32333;55.844;-3.210;2024-02-28T07:56:55;0;0;
45871;PMS5003;32333;55.844;-3.210;2024-02-28T07:59:23;0;0;
45871;PMS5003;32333;55.844;-3.210;2024-02-28T08:01:51;0;0;
45871;PMS5003;32333;55.844;-3.210;2024-02-28T08:04:18;1;1;
45871;PMS5003;32333;55.844;-3.210;2024-02-28T08:06:46;0;0;
45871;PMS5003;32333;55.844;-3.210;2024-02-28T08:09:13;0;0;
45871;PMS5003;32333;55.844;-3.210;2024-02-28T08:11:41;0;0;
45871;PMS5003;32333;55.844;-3.210;2024-02-28T08:14:35;0;0;
45871;PMS5003;32333;55.844;-3.210;2024-02-28T08:17:03;0;0;
45871;PMS5003;32333;55.844;-3.210;2024-02-28T08:19:30;0;0;
45871;PMS5003;32333;55.844;-3.210;2024-02-28T08:22:00;0;0;
45871;PMS5003;32333;55.844;-3.210;2024-02-28T08:24:27;0;0;
45871;PMS5003;32333;55.844;-3.210;2024-02-28T08:26:54;0;0;
45871;PMS5003;32333;55.844;-3.210;2024-02-28T08:29:22;0;0;
45871;PMS5003;32333;55.844;-3.210;2024-02-28T08:31:49;0;0;
45871;PMS5003;32333;55.844;-3.210;2024-02-28T08:34:17;0;0;
45871;PMS5003;32333;55.844;-3.210;2024-02-28T08:36:45;4;3;
45871;PMS5003;32333;55.844;-3.210;2024-02-28T08:39:13;0;0;
45871;PMS5003;32333;55.844;-3.210;2024-02-28T08:41:41;0;0;
45871;PMS5003;32333;55.844;-3.210;2024-02-28T08:44:35;0;0;
45871;PMS5003;32333;55.844;-3.210;2024-02-28T08:47:04;1;1;
45871;PMS5003;32333;55.844;-3.210;2024-02-28T08:49:32;1;1;
45871;PMS5003;32333;55.844;-3.210;2024-02-28T08:52:00;0;0;
45871;PMS5003;32333;55.844;-3.210;2024-02-28T08:54:27;0;0;
45871;PMS5003;32333;55.844;-3.210;2024-02-28T08:56:56;1;0;
45871;PMS5003;32333;55.844;-3.210;2024-02-28T08:59:24;1;1;
45871;PMS5003;32333;55.844;-3.210;2024-02-28T09:01:51;1;1;
45871;PMS5003;32333;55.844;-3.210;2024-02-28T09:04:19;0;0;
45871;PMS5003;32333;55.844;-3.210;2024-02-28T09:06:47;3;3;
45871;PMS5003;32333;55.844;-3.210;2024-02-28T09:09:15;0;0;
45871;PMS5003;32333;55.844;-3.210;2024-02-28T09:11:43;0;0;
45871;PMS5003;32333;55.844;-3.210;2024-02-28T09:14:35;0;0;
45871;PMS5003;32333;55.844;-3.210;2024-02-28T09:17:03;1;1;
45871;PMS5003;32333;55.844;-3.210;2024-02-28T09:19:31;1;1;
45871;PMS5003;32333;55.844;-3.210;2024-02-28T09:22:00;0;0;
45871;PMS5003;32333;55.844;-3.210;2024-02-28T09:24:28;0;0;
45871;PMS5003;32333;55.844;-3.210;2024-02-28T09:26:55;1;1;
45871;PMS5003;32333;55.844;-3.210;2024-02-28T09:29:24;1;1;
45871;PMS5003;32333;55.844;-3.210;2024-02-28T09:31:52;0;0;
45871;PMS5003;32333;55.844;-3.210;2024-02-28T09:34:19;0;0;
45871;PMS5003;32333;55.844;-3.210;2024-02-28T09:36:48;1;0;
45871;PMS5003;32333;55.844;-3.210;2024-02-28T09:39:15;1;1;
45871;PMS5003;32333;55.844;-3.210;2024-02-28T09:41:43;0;0;
45871;PMS5003;32333;55.844;-3.210;2024-02-28T09:44:35;0;0;
45871;PMS5003;32333;55.844;-3.210;2024-02-28T09:47:03;1;1;
45871;PMS5003;32333;55.844;-3.210;2024-02-28T09:49:32;1;1;
45871;PMS5003;32333;55.844;-3.210;2024-02-28T09:52:03;1;1;
45871;PMS5003;32333;55.844;-3.210;2024-02-28T09:54:32;18;15;
45871;PMS5003;32333;55.844;-3.210;2024-02-28T09:56:59;31;31;
45871;PMS5003;32333;55.844;-3.210;2024-02-28T09:59:28;10;10;
45871;PMS5003;32333;55.844;-3.210;2024-02-28T10:01:56;1;1;
45871;PMS5003;32333;55.844;-3.210;2024-02-28T10:04:23;3;0;
45871;PMS5003;32333;55.844;-3.210;2024-02-28T10:06:53;1;1;
45871;PMS5003;32333;55.844;-3.210;2024-02-28T10:09:23;1;0;
45871;PMS5003;32333;55.844;-3.210;2024-02-28T10:11:51;1;1;
45871;PMS5003;32333;55.844;-3.210;2024-02-28T10:14:35;1;1;
45871;PMS5003;32333;55.844;-3.210;2024-02-28T10:17:03;0;0;
45871;PMS5003;32333;55.844;-3.210;2024-02-28T10:19:31;0;0;
45871;PMS5003;32333;55.844;-3.210;2024-02-28T10:22:00;0;0;
45871;PMS5003;32333;55.844;-3.210;2024-02-28T10:24:28;0;0;
45871;PMS5003;32333;55.844;-3.210;2024-02-28T10:26:55;0;0;
45871;PMS5003;32333;55.844;-3.210;2024-02-28T10:29:27;3;3;
45871;PMS5003;32333;55.844;-3.210;2024-02-28T10:31:55;0;0;
45871;PMS5003;32333;55.844;-3.210;2024-02-28T10:34:25;0;0;
45871;PMS5003;32333;55.844;-3.210;2024-02-28T10:36:53;0;0;
45871;PMS5003;32333;55.844;-3.210;2024-02-28T10:39:21;0;0;
45871;PMS5003;32333;55.844;-3.210;2024-02-28T10:41:50;0;0;
45871;PMS5003;32333;55.844;-3.210;2024-02-28T10:44:35;0;0;
45871;PMS5003;32333;55.844;-3.210;2024-02-28T10:47:04;0;0;
45871;PMS5003;32333;55.844;-3.210;2024-02-28T10:49:34;0;0;
45871;PMS5003;32333;55.844;-3.210;2024-02-28T10:52:02;0;0;
45871;PMS5003;32333;55.844;-3.210;2024-02-28T10:54:33;0;0;
45871;PMS5003;32333;55.844;-3.210;2024-02-28T10:57:06;0;0;
45871;PMS5003;32333;55.844;-3.210;2024-02-28T10:59:37;0;0;
45871;PMS5003;32333;55.844;-3.210;2024-02-28T11:02:04;1;0;
45871;PMS5003;32333;55.844;-3.210;2024-02-28T11:04:32;0;0;
45871;PMS5003;32333;55.844;-3.210;2024-02-28T11:07:01;0;0;
45871;PMS5003;32333;55.844;-3.210;2024-02-28T11:09:29;0;0;
45871;PMS5003;32333;55.844;-3.210;2024-02-28T11:11:56;0;0;
45871;PMS5003;32333;55.844;-3.210;2024-02-28T11:14:35;0;0;
45871;PMS5003;32333;55.844;-3.210;2024-02-28T11:17:08;0;0;
45871;PMS5003;32333;55.844;-3.210;2024-02-28T11:19:37;0;0;
45871;PMS5003;32333;55.844;-3.210;2024-02-28T11:22:06;0;0;
45871;PMS5003;32333;55.844;-3.210;2024-02-28T11:24:36;0;0;
45871;PMS5003;32333;55.844;-3.210;2024-02-28T11:27:05;0;0;
45871;PMS5003;32333;55.844;-3.210;2024-02-28T11:29:34;0;0;
45871;PMS5003;32333;55.844;-3.210;2024-02-28T11:32:02;1;1;
45871;PMS5003;32333;55.844;-3.210;2024-02-28T11:34:33;0;0;
45871;PMS5003;32333;55.844;-3.210;2024-02-28T11:37:02;0;0;
45871;PMS5003;32333;55.844;-3.210;2024-02-28T11:39:31;0;0;
45871;PMS5003;32333;55.844;-3.210;2024-02-28T11:44:35;0;0;
45871;PMS5003;32333;55.844;-3.210;2024-02-28T11:47:02;0;0;
45871;PMS5003;32333;55.844;-3.210;2024-02-28T11:49:32;0;0;
45871;PMS5003;32333;55.844;-3.210;2024-02-28T11:52:03;0;0;
45871;PMS5003;32333;55.844;-3.210;2024-02-28T11:54:33;3;0;
45871;PMS5003;32333;55.844;-3.210;2024-02-28T11:57:07;0;0;
45871;PMS5003;32333;55.844;-3.210;2024-02-28T11:59:37;1;1;
45871;PMS5003;32333;55.844;-3.210;2024-02-28T12:02:23;0;0;
45871;PMS5003;32333;55.844;-3.210;2024-02-28T12:04:54;0;0;
45871;PMS5003;32333;55.844;-3.210;2024-02-28T12:07:21;0;0;
45871;PMS5003;32333;55.844;-3.210;2024-02-28T12:09:50;0;0;
45871;PMS5003;32333;55.844;-3.210;2024-02-28T12:14:36;1;1;
45871;PMS5003;32333;55.844;-3.210;2024-02-28T12:17:05;0;0;
45871;PMS5003;32333;55.844;-3.210;2024-02-28T12:19:34;0;0;
45871;PMS5003;32333;55.844;-3.210;2024-02-28T12:22:04;1;0;
45871;PMS5003;32333;55.844;-3.210;2024-02-28T12:24:33;0;0;
45871;PMS5003;32333;55.844;-3.210;2024-02-28T12:27:02;0;0;
45871;PMS5003;32333;55.844;-3.210;2024-02-28T12:29:32;0;0;
45871;PMS5003;32333;55.844;-3.210;2024-02-28T12:32:01;0;0;
45871;PMS5003;32333;55.844;-3.210;2024-02-28T12:34:31;0;0;
45871;PMS5003;32333;55.844;-3.210;2024-02-28T12:37:00;1;0;
45871;PMS5003;32333;55.844;-3.210;2024-02-28T12:39:28;0;0;
45871;PMS5003;32333;55.844;-3.210;2024-02-28T12:41:56;0;0;
45871;PMS5003;32333;55.844;-3.210;2024-02-28T12:44:35;0;0;
45871;PMS5003;32333;55.844;-3.210;2024-02-28T12:47:02;0;0;
45871;PMS5003;32333;55.844;-3.210;2024-02-28T12:49:29;0;0;
45871;PMS5003;32333;55.844;-3.210;2024-02-28T12:51:58;0;0;
45871;PMS5003;32333;55.844;-3.210;2024-02-28T12:54:25;0;0;
45871;PMS5003;32333;55.844;-3.210;2024-02-28T12:56:52;0;0;
45871;PMS5003;32333;55.844;-3.210;2024-02-28T12:59:20;0;0;
45871;PMS5003;32333;55.844;-3.210;2024-02-28T13:01:48;0;0;
45871;PMS5003;32333;55.844;-3.210;2024-02-28T13:04:16;0;0;
45871;PMS5003;32333;55.844;-3.210;2024-02-28T13:06:43;0;0;
45871;PMS5003;32333;55.844;-3.210;2024-02-28T13:09:11;0;0;
45871;PMS5003;32333;55.844;-3.210;2024-02-28T13:11:39;0;0;
45871;PMS5003;32333;55.844;-3.210;2024-02-28T13:14:35;0;0;
45871;PMS5003;32333;55.844;-3.210;2024-02-28T13:17:02;0;0;
45871;PMS5003;32333;55.844;-3.210;2024-02-28T13:19:30;7;7;
45871;PMS5003;32333;55.844;-3.210;2024-02-28T13:21:59;7;7;
45871;PMS5003;32333;55.844;-3.210;2024-02-28T13:24:26;7;7;
45871;PMS5003;32333;55.844;-3.210;2024-02-28T13:26:53;7;7;
45871;PMS5003;32333;55.844;-3.210;2024-02-28T13:29:23;6;6;
45871;PMS5003;32333;55.844;-3.210;2024-02-28T13:31:50;4;4;
45871;PMS5003;32333;55.844;-3.210;2024-02-28T13:34:17;3;3;
45871;PMS5003;32333;55.844;-3.210;2024-02-28T13:36:46;4;4;
45871;PMS5003;32333;55.844;-3.210;2024-02-28T13:39:13;4;4;
45871;PMS5003;32333;55.844;-3.210;2024-02-28T13:41:41;6;6;
45871;PMS5003;32333;55.844;-3.210;2024-02-28T13:44:34;6;6;
45871;PMS5003;32333;55.844;-3.210;2024-02-28T13:47:02;15;15;
45871;PMS5003;32333;55.844;-3.210;2024-02-28T13:49:30;15;15;
45871;PMS5003;32333;55.844;-3.210;2024-02-28T13:51:58;15;15;
45871;PMS5003;32333;55.844;-3.210;2024-02-28T13:54:27;12;12;
45871;PMS5003;32333;55.844;-3.210;2024-02-28T13:56:54;10;10;
45871;PMS5003;32333;55.844;-3.210;2024-02-28T13:59:23;12;12;
45871;PMS5003;32333;55.844;-3.210;2024-02-28T14:01:50;15;12;
45871;PMS5003;32333;55.844;-3.210;2024-02-28T14:04:17;15;15;
45871;PMS5003;32333;55.844;-3.210;2024-02-28T14:06:46;16;16;
45871;PMS5003;32333;55.844;-3.210;2024-02-28T14:09:13;10;10;
45871;PMS5003;32333;55.844;-3.210;2024-02-28T14:11:40;9;9;
45871;PMS5003;32333;55.844;-3.210;2024-02-28T14:14:35;3;3;
45871;PMS5003;32333;55.844;-3.210;2024-02-28T14:17:03;6;6;
45871;PMS5003;32333;55.844;-3.210;2024-02-28T14:19:32;10;10;
45871;PMS5003;32333;55.844;-3.210;2024-02-28T14:22:01;16;16;
45871;PMS5003;32333;55.844;-3.210;2024-02-28T14:24:29;19;19;
45871;PMS5003;32333;55.844;-3.210;2024-02-28T14:26:58;18;18;
45871;PMS5003;32333;55.844;-3.210;2024-02-28T14:29:25;1;1;
45871;PMS5003;32333;55.844;-3.210;2024-02-28T14:31:53;0;0;
45871;PMS5003;32333;55.844;-3.210;2024-02-28T14:34:20;0;0;
45871;PMS5003;32333;55.844;-3.210;2024-02-28T14:36:48;0;0;
45871;PMS5003;32333;55.844;-3.210;2024-02-28T14:39:17;0;0;
45871;PMS5003;32333;55.844;-3.210;2024-02-28T14:41:47;0;0;
45871;PMS5003;32333;55.844;-3.210;2024-02-28T14:44:34;0;0;
45871;PMS5003;32333;55.844;-3.210;2024-02-28T14:47:02;0;0;
45871;PMS5003;32333;55.844;-3.210;2024-02-28T14:49:30;0;0;
45871;PMS5003;32333;55.844;-3.210;2024-02-28T14:51:58;0;0;
45871;PMS5003;32333;55.844;-3.210;2024-02-28T14:54:26;0;0;
45871;PMS5003;32333;55.844;-3.210;2024-02-28T14:56:53;0;0;
45871;PMS5003;32333;55.844;-3.210;2024-02-28T14:59:22;0;0;
45871;PMS5003;32333;55.844;-3.210;2024-02-28T15:01:50;0;0;
45871;PMS5003;32333;55.844;-3.210;2024-02-28T15:04:18;0;0;
45871;PMS5003;32333;55.844;-3.210;2024-02-28T15:06:46;0;0;
45871;PMS5003;32333;55.844;-3.210;2024-02-28T15:09:14;0;0;
45871;PMS5003;32333;55.844;-3.210;2024-02-28T15:11:41;0;0;
45871;PMS5003;32333;55.844;-3.210;2024-02-28T15:14:35;0;0;
45871;PMS5003;32333;55.844;-3.210;2024-02-28T15:17:03;0;0;
45871;PMS5003;32333;55.844;-3.210;2024-02-28T15:19:31;0;0;
45871;PMS5003;32333;55.844;-3.210;2024-02-28T15:21:59;0;0;
45871;PMS5003;32333;55.844;-3.210;2024-02-28T15:24:27;0;0;
45871;PMS5003;32333;55.844;-3.210;2024-02-28T15:26:55;0;0;
45871;PMS5003;32333;55.844;-3.210;2024-02-28T15:29:23;0;0;
45871;PMS5003;32333;55.844;-3.210;2024-02-28T15:31:50;0;0;
45871;PMS5003;32333;55.844;-3.210;2024-02-28T15:34:18;0;0;
45871;PMS5003;32333;55.844;-3.210;2024-02-28T15:36:46;0;0;
45871;PMS5003;32333;55.844;-3.210;2024-02-28T15:39:17;0;0;
45871;PMS5003;32333;55.844;-3.210;2024-02-28T15:41:45;0;0;
45871;PMS5003;32333;55.844;-3.210;2024-02-28T15:44:35;0;0;
45871;PMS5003;32333;55.844;-3.210;2024-02-28T15:47:07;0;0;
45871;PMS5003;32333;55.844;-3.210;2024-02-28T15:49:35;0;0;
45871;PMS5003;32333;55.844;-3.210;2024-02-28T15:52:02;0;0;
45871;PMS5003;32333;55.844;-3.210;2024-02-28T15:54:31;0;0;
45871;PMS5003;32333;55.844;-3.210;2024-02-28T15:56:59;0;0;
45871;PMS5003;32333;55.844;-3.210;2024-02-28T15:59:28;0;0;
45871;PMS5003;32333;55.844;-3.210;2024-02-28T16:01:57;0;0;
45871;PMS5003;32333;55.844;-3.210;2024-02-28T16:04:25;0;0;
45871;PMS5003;32333;55.844;-3.210;2024-02-28T16:06:53;0;0;
45871;PMS5003;32333;55.844;-3.210;2024-02-28T16:09:22;0;0;
45871;PMS5003;32333;55.844;-3.210;2024-02-28T16:11:50;0;0;
45871;PMS5003;32333;55.844;-3.210;2024-02-28T16:14:34;0;0;
45871;PMS5003;32333;55.844;-3.210;2024-02-28T16:17:03;0;0;
45871;PMS5003;32333;55.844;-3.210;2024-02-28T16:19:30;0;0;
45871;PMS5003;32333;55.844;-3.210;2024-02-28T16:21:58;0;0;
45871;PMS5003;32333;55.844;-3.210;2024-02-28T16:24:27;0;0;
45871;PMS5003;32333;55.844;-3.210;2024-02-28T16:26:55;0;0;
45871;PMS5003;32333;55.844;-3.210;2024-02-28T16:29:23;0;0;
45871;PMS5003;32333;55.844;-3.210;2024-02-28T16:31:51;0;0;
45871;PMS5003;32333;55.844;-3.210;2024-02-28T16:34:19;0;0;
45871;PMS5003;32333;55.844;-3.210;2024-02-28T16:36:47;0;0;
45871;PMS5003;32333;55.844;-3.210;2024-02-28T16:39:16;0;0;
45871;PMS5003;32333;55.844;-3.210;2024-02-28T16:41:45;0;0;
45871;PMS5003;32333;55.844;-3.210;2024-02-28T16:44:35;0;0;
45871;PMS5003;32333;55.844;-3.210;2024-02-28T16:47:04;1;1;
45871;PMS5003;32333;55.844;-3.210;2024-02-28T16:49:35;1;1;
45871;PMS5003;32333;55.844;-3.210;2024-02-28T16:52:03;3;3;
45871;PMS5003;32333;55.844;-3.210;2024-02-28T16:54:31;6;6;
45871;PMS5003;32333;55.844;-3.210;2024-02-28T16:56:59;6;6;
45871;PMS5003;32333;55.844;-3.210;2024-02-28T16:59:30;9;9;
45871;PMS5003;32333;55.844;-3.210;2024-02-28T17:01:58;16;16;
45871;PMS5003;32333;55.844;-3.210;2024-02-28T17:04:26;19;19;
45871;PMS5003;32333;55.844;-3.210;2024-02-28T17:07:01;15;15;
45871;PMS5003;32333;55.844;-3.210;2024-02-28T17:09:28;9;9;